Time;durP1;ratioP1;P1;durP2;ratioP2;P2;SDS_P1;SDS_P2;PMS_P1;PMS_P2;Temp;Humidity;BMP_temperature;BMP_pressure;BME280_temperature;BME280_humidity;BME280_pressure;Samples;Min_cycle;Max_cycle;Signal;HPM_P1;HPM_P2
2021/10/23 00:01:41;;;;;;;;;6.33;5.00;;;;;19.27;47.13;102363.66;5077113;27;45336;-67
2021/10/23 00:04:07;;;;;;;;;4.33;4.33;;;;;19.26;47.23;102361.91;5077454;28;45530;-66
2021/10/23 00:06:32;;;;;;;;;4.33;4.33;;;;;19.28;47.27;102356.56;5077196;27;45304;-67
2021/10/23 00:08:57;;;;;;;;;4.67;4.67;;;;;19.27;47.08;102352.13;5077104;28;46236;-66
2021/10/23 00:11:23;;;;;;;;;5.00;4.00;;;;;19.26;47.23;102351.25;5076680;28;45425;-67
2021/10/23 00:13:48;;;;;;;;;4.00;4.00;;;;;19.27;47.27;102353.00;5077179;28;45377;-67
2021/10/23 00:16:14;;;;;;;;;4.67;4.67;;;;;19.27;47.21;102352.13;5077276;28;45711;-66
2021/10/23 00:18:39;;;;;;;;;6.67;5.00;;;;;19.26;47.01;102355.66;5076837;28;46037;-67
2021/10/23 00:21:05;;;;;;;;;4.67;4.00;;;;;19.27;47.10;102362.81;5076938;28;45352;-65
2021/10/23 00:23:30;;;;;;;;;8.00;5.67;;;;;19.26;47.28;102356.56;5075713;28;45362;-67
2021/10/23 00:25:55;;;;;;;;;4.67;3.33;;;;;19.26;47.25;102359.25;5077102;28;45479;-66
2021/10/23 00:28:22;;;;;;;;;5.00;5.00;;;;;19.27;47.32;102354.81;5077025;28;46043;-67
2021/10/23 00:30:48;;;;;;;;;5.00;5.00;;;;;19.27;47.44;102357.47;5076715;28;45749;-67
2021/10/23 00:33:13;;;;;;;;;3.67;3.67;;;;;19.27;47.24;102358.34;5076540;28;45436;-67
2021/10/23 00:35:39;;;;;;;;;4.67;4.00;;;;;19.26;47.21;102367.25;5077041;27;45422;-67
2021/10/23 00:38:04;;;;;;;;;5.00;3.00;;;;;19.27;47.03;102362.81;5076673;28;45209;-66
2021/10/23 00:40:29;;;;;;;;;5.33;4.00;;;;;19.26;47.25;102367.25;5076804;28;45291;-65
2021/10/23 00:42:56;;;;;;;;;5.33;5.33;;;;;19.27;47.25;102368.13;5076834;28;45326;-67
2021/10/23 00:45:22;;;;;;;;;5.67;4.00;;;;;19.25;47.08;102354.78;5076949;27;45293;-64
2021/10/23 00:47:48;;;;;;;;;7.33;4.67;;;;;19.25;47.20;102357.44;5076432;28;46492;-66
2021/10/23 00:50:14;;;;;;;;;4.67;4.67;;;;;19.24;47.26;102353.00;5076675;28;45412;-66
2021/10/23 00:52:39;;;;;;;;;5.00;5.00;;;;;19.26;46.98;102353.00;5076920;28;45331;-66
2021/10/23 00:55:08;;;;;;;;;5.67;4.00;;;;;19.25;47.06;102354.78;5076789;28;45315;-66
2021/10/23 00:57:35;;;;;;;;;5.33;4.00;;;;;19.26;47.12;102361.91;5076640;28;46123;-66
2021/10/23 01:00:00;;;;;;;;;6.00;4.00;;;;;19.26;46.80;102363.66;5076376;28;45266;-65
2021/10/23 01:02:25;;;;;;;;;5.00;4.33;;;;;19.26;47.06;102355.66;5076437;28;45302;-67
2021/10/23 01:04:51;;;;;;;;;4.00;4.00;;;;;19.25;47.01;102360.09;5076770;28;45491;-66
2021/10/23 01:07:16;;;;;;;;;4.33;4.33;;;;;19.26;47.00;102350.34;5075240;28;47179;-64
2021/10/23 01:09:44;;;;;;;;;4.67;4.00;;;;;19.26;47.05;102353.00;5076378;28;45414;-65
2021/10/23 01:12:11;;;;;;;;;5.33;3.67;;;;;19.25;47.41;102354.78;5076318;28;45441;-66
2021/10/23 01:14:36;;;;;;;;;5.33;5.33;;;;;19.25;47.13;102351.25;5076627;28;45330;-65
2021/10/23 01:17:03;;;;;;;;;4.33;4.33;;;;;19.26;47.03;102355.66;5076041;28;47062;-67
2021/10/23 01:19:28;;;;;;;;;3.67;3.00;;;;;19.24;47.13;102353.00;5077261;28;45337;-65
2021/10/23 01:21:54;;;;;;;;;3.67;3.67;;;;;19.26;46.96;102347.69;5079710;28;45298;-64
2021/10/23 01:24:20;;;;;;;;;4.33;4.00;;;;;19.25;46.88;102354.78;5080282;28;45172;-66
2021/10/23 01:26:48;;;;;;;;;5.00;2.67;;;;;19.26;47.01;102343.25;5079843;28;46502;-66
2021/10/23 01:29:15;;;;;;;;;5.67;5.67;;;;;19.26;47.01;102345.00;5079494;28;45385;-65
2021/10/23 01:31:42;;;;;;;;;6.00;3.67;;;;;19.26;46.81;102348.56;5079476;28;45409;-66
2021/10/23 01:34:25;;;;;;;;;3.33;3.33;;;;;19.25;46.94;102338.78;5079281;28;45313;-64
2021/10/23 01:36:58;;;;;;;;;4.00;3.33;;;;;19.26;46.92;102350.34;5079617;28;46973;-65
2021/10/23 01:39:27;;;;;;;;;3.33;3.33;;;;;19.24;46.97;102342.34;5079591;28;45388;-66
2021/10/23 01:41:54;;;;;;;;;8.33;3.67;;;;;19.26;47.17;102340.56;5079671;28;45301;-65
2021/10/23 01:44:34;;;;;;;;;4.67;3.67;;;;;19.25;46.92;102333.44;5079711;28;45607;-65
2021/10/23 01:47:00;;;;;;;;;5.00;3.33;;;;;19.24;47.14;102336.09;5078821;28;45523;-65
2021/10/23 01:49:25;;;;;;;;;6.00;4.00;;;;;19.24;46.82;102337.00;5078999;28;45451;-67
2021/10/23 01:51:51;;;;;;;;;4.33;3.00;;;;;19.25;46.76;102340.56;5079501;28;45737;-64
2021/10/23 01:54:17;;;;;;;;;3.33;3.00;;;;;19.26;46.95;102342.34;5079528;28;45380;-66
2021/10/23 01:56:42;;;;;;;;;3.67;3.33;;;;;19.25;46.54;102332.56;5079015;28;46240;-65
2021/10/23 01:59:09;;;;;;;;;4.33;4.00;;;;;19.24;46.94;102331.69;5078798;28;45256;-64
2021/10/23 02:01:35;;;;;;;;;5.00;4.00;;;;;19.25;46.95;102327.25;5079194;28;45277;-65
2021/10/23 02:04:01;;;;;;;;;5.33;4.33;;;;;19.25;46.69;102328.09;5079430;28;45202;-65
2021/10/23 02:06:26;;;;;;;;;4.67;4.00;;;;;19.25;46.55;102333.44;5078798;28;45989;-66
2021/10/23 02:08:52;;;;;;;;;5.00;3.00;;;;;19.24;46.66;102320.13;5079299;28;45313;-65
2021/10/23 02:11:17;;;;;;;;;2.33;2.33;;;;;19.26;46.78;102321.00;5078992;28;45204;-64
2021/10/23 02:13:43;;;;;;;;;3.33;3.33;;;;;19.25;46.72;102316.59;5079129;28;45421;-64
2021/10/23 02:16:09;;;;;;;;;4.00;4.00;;;;;19.25;46.83;102312.13;5078784;28;45471;-66
2021/10/23 02:18:35;;;;;;;;;5.00;4.00;;;;;19.25;46.85;102316.59;5078690;27;45408;-63
2021/10/23 02:21:01;;;;;;;;;2.67;2.67;;;;;19.24;46.64;102309.44;5078959;28;45451;-65
2021/10/23 02:23:26;;;;;;;;;5.00;3.00;;;;;19.24;46.82;102305.03;5078787;28;45396;-65
2021/10/23 02:25:52;;;;;;;;;4.00;4.00;;;;;19.23;46.56;102316.53;5078620;27;46358;-64
2021/10/23 02:28:18;;;;;;;;;4.00;4.00;;;;;19.24;46.71;102310.34;5078628;27;45435;-64
2021/10/23 02:30:44;;;;;;;;;3.00;3.00;;;;;19.24;46.94;102315.69;5078444;28;45456;-65
2021/10/23 02:33:09;;;;;;;;;3.67;2.00;;;;;19.23;46.68;102308.56;5078419;28;45534;-64
2021/10/23 02:35:35;;;;;;;;;4.00;2.67;;;;;19.23;46.71;102303.22;5078350;28;45941;-64
2021/10/23 02:38:00;;;;;;;;;4.00;3.00;;;;;19.24;46.78;102299.69;5078527;28;45301;-64
2021/10/23 02:40:26;;;;;;;;;4.67;4.00;;;;;19.24;46.90;102299.69;5078629;28;45313;-63
2021/10/23 02:42:51;;;;;;;;;3.33;3.33;;;;;19.23;46.95;102303.22;5078498;27;45454;-64
2021/10/23 02:45:17;;;;;;;;;3.67;3.00;;;;;19.24;46.93;102302.34;5078360;28;47191;-64
2021/10/23 02:47:42;;;;;;;;;4.33;3.00;;;;;19.23;46.66;102308.56;5078240;28;45297;-64
2021/10/23 02:50:09;;;;;;;;;3.67;3.33;;;;;19.24;46.73;102314.78;5078477;28;45425;-64
2021/10/23 02:52:35;;;;;;;;;2.00;2.00;;;;;19.23;46.77;102315.69;5078491;28;45563;-63
2021/10/23 02:55:00;;;;;;;;;3.33;3.33;;;;;19.24;46.67;102314.78;5078243;27;46364;-64
2021/10/23 02:57:26;;;;;;;;;3.00;3.00;;;;;19.22;46.63;102320.13;5078310;27;45267;-66
2021/10/23 02:59:51;;;;;;;;;5.33;3.00;;;;;19.22;46.84;102317.44;5078014;28;45409;-65
2021/10/23 03:02:17;;;;;;;;;3.33;3.00;;;;;19.23;46.73;102329.88;5078523;28;45301;-64
2021/10/23 03:04:42;;;;;;;;;3.00;3.00;;;;;19.23;46.54;102331.69;5077911;28;46099;-64
2021/10/23 03:07:08;;;;;;;;;3.67;2.33;;;;;19.24;46.55;102325.44;5078220;28;45483;-66
2021/10/23 03:09:33;;;;;;;;;5.00;2.67;;;;;19.22;46.57;102317.44;5078263;28;45645;-64
2021/10/23 03:11:59;;;;;;;;;3.00;3.00;;;;;19.23;46.71;102321.88;5078419;28;45168;-65
2021/10/23 03:14:25;;;;;;;;;2.67;2.67;;;;;19.23;46.63;102327.22;5077720;27;45893;-65
2021/10/23 03:16:50;;;;;;;;;4.67;3.67;;;;;19.23;46.61;102318.34;5077850;28;45327;-65
2021/10/23 03:19:16;;;;;;;;;5.00;4.00;;;;;19.24;46.51;102325.44;5077978;28;45296;-63
2021/10/23 03:21:42;;;;;;;;;3.00;3.00;;;;;19.23;46.56;102313.00;5077981;28;45370;-64
2021/10/23 03:24:07;;;;;;;;;3.67;3.00;;;;;19.23;46.50;102318.34;5077796;28;47036;-65
2021/10/23 03:26:33;;;;;;;;;3.00;2.33;;;;;19.22;46.42;102325.44;5077639;27;45322;-67
2021/10/23 03:28:58;;;;;;;;;3.00;3.00;;;;;19.23;46.60;102321.88;5078049;28;45841;-64
2021/10/23 03:31:23;;;;;;;;;2.67;2.67;;;;;19.22;46.63;102317.44;5077910;28;45252;-64
2021/10/23 03:33:49;;;;;;;;;4.67;4.00;;;;;19.23;46.40;102318.34;5077188;27;47186;-64
2021/10/23 03:36:15;;;;;;;;;4.00;3.67;;;;;19.22;46.61;102320.13;5077595;28;45397;-64
2021/10/23 03:38:40;;;;;;;;;3.33;2.00;;;;;19.22;46.54;102322.78;5077756;27;45462;-66
2021/10/23 03:41:05;;;;;;;;;5.00;3.00;;;;;19.23;46.29;102321.88;5077905;28;45384;-64
2021/10/23 03:43:31;;;;;;;;;3.33;3.33;;;;;19.21;46.37;102321.88;5076893;28;46213;-65
2021/10/23 03:45:56;;;;;;;;;3.33;2.67;;;;;19.21;46.77;102319.22;5077290;28;45566;-64
2021/10/23 03:48:22;;;;;;;;;3.00;2.67;;;;;19.22;46.54;102322.78;5077677;27;45417;-66
2021/10/23 03:50:47;;;;;;;;;2.67;2.67;;;;;19.21;46.43;102316.53;5077602;28;45447;-67
2021/10/23 03:53:13;;;;;;;;;2.00;2.00;;;;;19.21;46.49;102312.97;5077181;28;46330;-65
2021/10/23 03:55:38;;;;;;;;;1.67;1.67;;;;;19.21;46.58;102313.88;5077452;27;45372;-66
2021/10/23 03:58:05;;;;;;;;;2.00;1.67;;;;;19.21;46.54;102310.31;5077430;28;45238;-66
2021/10/23 04:00:31;;;;;;;;;3.67;3.67;;;;;19.21;46.48;102315.66;5077800;27;45218;-68
2021/10/23 04:02:56;;;;;;;;;3.00;3.00;;;;;19.20;46.47;102320.09;5077101;28;46191;-67
2021/10/23 04:05:22;;;;;;;;;3.33;2.00;;;;;19.20;46.63;102303.22;5077187;28;45319;-67
2021/10/23 04:07:47;;;;;;;;;1.67;1.67;;;;;19.20;46.62;102313.88;5077465;28;45325;-66
2021/10/23 04:10:13;;;;;;;;;5.00;2.00;;;;;19.21;46.51;102313.88;5077413;27;45569;-67
2021/10/23 04:12:38;;;;;;;;;4.33;3.00;;;;;19.21;46.73;102310.31;5077239;28;45759;-67
2021/10/23 04:15:04;;;;;;;;;2.00;2.00;;;;;19.21;46.45;102304.97;5077153;28;45306;-66
2021/10/23 04:17:30;;;;;;;;;3.33;2.00;;;;;19.21;46.34;102299.66;5077091;27;45450;-67
2021/10/23 04:19:55;;;;;;;;;2.67;2.67;;;;;19.21;46.51;102307.66;5077160;28;45398;-66
2021/10/23 04:22:21;;;;;;;;;3.33;2.00;;;;;19.21;46.56;102304.97;5077101;28;46097;-66
2021/10/23 04:24:47;;;;;;;;;3.00;2.00;;;;;19.21;46.56;102304.97;5077363;27;45391;-65
2021/10/23 04:27:13;;;;;;;;;1.33;1.33;;;;;19.21;46.30;102310.31;5077016;27;45363;-66
2021/10/23 04:29:38;;;;;;;;;4.00;2.33;;;;;19.21;46.40;102311.22;5077219;28;45388;-66
2021/10/23 04:32:04;;;;;;;;;3.33;3.00;;;;;19.18;46.59;102300.53;5076557;28;46901;-66
2021/10/23 04:34:30;;;;;;;;;5.00;3.33;;;;;19.19;46.31;102296.97;5076631;28;45405;-66
2021/10/23 04:36:57;;;;;;;;;2.67;2.67;;;;;19.20;46.29;102303.22;5076886;27;45342;-67
2021/10/23 04:39:22;;;;;;;;;3.67;3.00;;;;;19.20;46.55;102309.44;5077057;28;45455;-66
2021/10/23 04:41:48;;;;;;;;;4.33;3.33;;;;;19.20;46.53;102306.78;5076776;28;46867;-66
2021/10/23 04:44:13;;;;;;;;;3.67;3.67;;;;;19.19;46.27;102304.97;5076574;28;45458;-67
2021/10/23 04:46:38;;;;;;;;;3.00;2.00;;;;;19.20;46.37;102312.13;5076812;28;45423;-67
2021/10/23 04:49:04;;;;;;;;;1.67;1.67;;;;;19.20;46.37;102319.22;5076772;28;45780;-68
2021/10/23 04:51:29;;;;;;;;;2.67;2.67;;;;;19.19;46.33;102307.66;5076620;27;46226;-67
2021/10/23 04:53:55;;;;;;;;;1.67;1.67;;;;;19.20;46.30;102319.22;5077215;27;45309;-67
2021/10/23 04:56:20;;;;;;;;;4.67;3.33;;;;;19.20;46.49;102314.78;5080320;28;45360;-67
2021/10/23 04:58:46;;;;;;;;;4.33;4.33;;;;;19.20;46.31;102309.44;5080367;28;45336;-67
2021/10/23 05:01:12;;;;;;;;;2.67;2.67;;;;;19.19;46.29;102310.31;5079890;28;46006;-66
2021/10/23 05:03:37;;;;;;;;;3.33;1.67;;;;;19.19;46.50;102307.66;5079912;28;45519;-67
2021/10/23 05:06:03;;;;;;;;;3.00;3.00;;;;;19.19;46.31;102318.31;5079953;28;45385;-66
2021/10/23 05:08:28;;;;;;;;;2.33;2.33;;;;;19.19;46.36;102317.41;5080109;28;45337;-67
2021/10/23 05:10:54;;;;;;;;;2.33;2.33;;;;;19.20;46.37;102320.09;5079923;28;47144;-67
2021/10/23 05:13:19;;;;;;;;;3.00;3.00;;;;;19.19;46.27;102322.75;5079876;27;45668;-66
2021/10/23 05:15:45;;;;;;;;;3.33;3.33;;;;;19.19;46.49;102320.97;5080091;27;45467;-65
2021/10/23 05:18:10;;;;;;;;;3.00;3.00;;;;;19.20;46.30;102329.88;5080172;28;45424;-66
2021/10/23 05:20:35;;;;;;;;;3.33;3.00;;;;;19.19;46.39;102336.97;5079640;28;46299;-65
2021/10/23 05:23:01;;;;;;;;;2.00;2.00;;;;;19.19;46.41;102331.63;5079757;28;45267;-67
2021/10/23 05:25:27;;;;;;;;;3.00;3.00;;;;;19.19;46.43;102328.06;5079797;28;45353;-65
2021/10/23 05:27:53;;;;;;;;;3.00;3.00;;;;;19.19;46.42;102328.06;5079894;28;45537;-66
2021/10/23 05:30:18;;;;;;;;;2.67;2.67;;;;;19.18;46.42;102329.88;5079703;28;46237;-64
2021/10/23 05:32:43;;;;;;;;;4.33;2.33;;;;;19.18;46.51;102321.88;5079322;28;45480;-66
2021/10/23 05:35:09;;;;;;;;;2.00;1.67;;;;;19.18;46.28;102331.63;5079534;28;45323;-65
2021/10/23 05:37:34;;;;;;;;;2.67;2.67;;;;;19.18;46.24;102326.31;5079789;28;45426;-66
2021/10/23 05:40:00;;;;;;;;;2.67;2.00;;;;;19.18;46.55;102326.31;5079383;28;46152;-64
2021/10/23 05:42:25;;;;;;;;;3.67;3.67;;;;;19.18;46.28;102327.19;5079313;28;45308;-66
2021/10/23 05:44:51;;;;;;;;;3.33;3.00;;;;;19.16;46.41;102331.59;5079691;28;45384;-66
2021/10/23 05:47:16;;;;;;;;;2.33;2.33;;;;;19.19;46.27;102333.41;5079413;28;45384;-67
2021/10/23 05:49:41;;;;;;;;;3.33;2.33;;;;;19.17;46.45;102328.06;5079544;28;46268;-64
2021/10/23 05:52:07;;;;;;;;;2.00;2.00;;;;;19.18;46.51;102326.31;5079390;28;45346;-67
2021/10/23 05:54:38;;;;;;;;;4.00;4.00;;;;;19.18;46.36;102326.31;5079249;28;45459;-66
2021/10/23 05:57:08;;;;;;;;;3.33;2.00;;;;;19.17;46.53;102328.06;5079624;27;45409;-66
2021/10/23 05:59:37;;;;;;;;;3.00;2.67;;;;;19.18;46.53;102335.19;5078741;27;45314;-68
2021/10/23 06:02:11;;;;;;;;;2.67;2.00;;;;;19.17;46.50;102330.72;5079133;28;45270;-67
2021/10/23 06:04:37;;;;;;;;;2.67;2.67;;;;;19.18;46.19;102331.63;5078696;27;45485;-66
2021/10/23 06:07:05;;;;;;;;;3.00;2.67;;;;;19.18;46.52;102336.97;5079732;28;45292;-68
2021/10/23 06:09:31;;;;;;;;;2.67;2.67;;;;;19.17;46.29;102336.06;5078565;27;47084;-66
2021/10/23 06:12:00;;;;;;;;;1.67;1.67;;;;;19.17;46.41;102338.72;5078783;28;45427;-67
2021/10/23 06:14:25;;;;;;;;;3.00;2.00;;;;;19.18;46.53;102344.97;5078834;28;45317;-66
2021/10/23 06:16:51;;;;;;;;;4.00;4.00;;;;;19.17;46.22;102343.16;5079355;28;45410;-68
2021/10/23 06:19:16;;;;;;;;;2.33;2.33;;;;;19.17;46.38;102343.16;5078807;28;46021;-68
2021/10/23 06:21:41;;;;;;;;;3.00;3.00;;;;;19.17;46.32;102343.16;5078769;28;45160;-67
2021/10/23 06:24:07;;;;;;;;;3.33;3.33;;;;;19.17;46.48;102349.41;5078964;28;45215;-67
2021/10/23 06:26:32;;;;;;;;;5.00;3.67;;;;;19.17;46.39;102348.50;5078961;28;45187;-68
2021/10/23 06:28:58;;;;;;;;;4.67;3.00;;;;;19.17;46.32;102348.50;5078749;28;46946;-67
2021/10/23 06:31:23;;;;;;;;;1.67;1.67;;;;;19.17;46.32;102360.06;5078767;27;45374;-67
2021/10/23 06:33:48;;;;;;;;;1.33;1.33;;;;;19.17;46.46;102361.81;5078434;28;45396;-67
2021/10/23 06:36:14;;;;;;;;;4.00;2.00;;;;;19.17;46.26;102367.16;5078829;28;45571;-66
2021/10/23 06:38:39;;;;;;;;;2.00;2.00;;;;;19.17;46.58;102359.16;5078332;28;47160;-64
2021/10/23 06:41:05;;;;;;;;;3.67;3.67;;;;;19.16;46.16;102368.91;5078577;28;45369;-65
2021/10/23 06:43:30;;;;;;;;;4.00;4.00;;;;;19.17;46.41;102376.06;5078662;28;45387;-66
2021/10/23 06:45:56;;;;;;;;;4.67;3.67;;;;;19.17;46.37;102365.38;5078867;28;45315;-69
2021/10/23 06:48:21;;;;;;;;;4.33;3.00;;;;;19.17;46.25;102365.38;5078244;28;45401;-67
2021/10/23 06:50:47;;;;;;;;;2.67;2.67;;;;;19.18;46.14;102371.63;5076826;28;45319;-73
2021/10/23 06:53:12;;;;;;;;;8.67;3.67;;;;;19.18;46.31;102374.28;5078020;28;45575;-69
2021/10/23 06:55:37;;;;;;;;;2.67;2.67;;;;;19.18;46.25;102376.94;5078060;28;45403;-67
2021/10/23 06:58:03;;;;;;;;;4.00;2.00;;;;;19.18;46.39;102380.53;5090373;27;47191;-67
2021/10/23 07:00:28;;;;;;;;;3.00;3.00;;;;;19.18;46.40;102388.50;5098228;27;45384;-69
2021/10/23 07:02:53;;;;;;;;;3.00;3.00;;;;;19.18;46.69;102391.19;5098747;27;45198;-68
2021/10/23 07:05:20;;;;;;;;;4.00;2.00;;;;;19.18;46.32;102391.19;5099181;27;45243;-65
2021/10/23 07:07:46;;;;;;;;;2.33;1.67;;;;;19.18;46.23;102399.19;5113993;27;46313;-71
2021/10/23 07:10:11;;;;;;;;;3.00;3.00;;;;;19.18;46.62;102401.84;5098251;27;45308;-65
2021/10/23 07:12:37;;;;;;;;;4.67;3.00;;;;;19.17;46.89;102402.72;5098378;27;45452;-71
2021/10/23 07:15:04;;;;;;;;;2.33;2.33;;;;;19.18;46.68;102403.59;5098649;27;45259;-68
2021/10/23 07:17:29;;;;;;;;;4.00;3.00;;;;;19.18;46.33;102415.19;5097031;27;47226;-69
2021/10/23 07:19:55;;;;;;;;;2.00;2.00;;;;;19.18;46.44;102414.28;5097903;27;45392;-70
2021/10/23 07:22:20;;;;;;;;;2.00;2.00;;;;;19.19;46.74;102413.38;5098257;27;45350;-70
2021/10/23 07:24:46;;;;;;;;;3.33;2.67;;;;;19.20;46.76;102415.19;5098286;27;45422;-71
2021/10/23 07:27:11;;;;;;;;;2.67;2.67;;;;;19.19;46.64;102416.03;5097488;27;46380;-71
2021/10/23 07:29:37;;;;;;;;;4.00;3.67;;;;;19.18;46.37;102427.59;5098145;27;45363;-71
2021/10/23 07:32:03;;;;;;;;;2.67;2.67;;;;;19.19;46.45;102437.38;5097984;27;45417;-71
2021/10/23 07:34:28;;;;;;;;;4.00;3.00;;;;;19.18;46.48;102433.84;5098269;27;45418;-70
2021/10/23 07:36:53;;;;;;;;;2.67;2.00;;;;;19.20;46.61;102439.16;5097833;27;45332;-69
2021/10/23 07:39:19;;;;;;;;;3.00;3.00;;;;;19.18;46.51;102439.16;5098079;27;45332;-65
2021/10/23 07:41:45;;;;;;;;;2.67;1.67;;;;;19.20;46.53;102447.16;5098029;27;45775;-68
2021/10/23 07:44:12;;;;;;;;;2.33;1.67;;;;;19.20;46.73;102448.06;5098122;27;45366;-65
2021/10/23 07:46:38;;;;;;;;;3.67;3.67;;;;;19.21;46.68;102451.59;5097715;27;47056;-66
2021/10/23 07:49:07;;;;;;;;;2.33;2.33;;;;;19.20;46.53;102448.06;5097793;27;45387;-67
2021/10/23 07:51:39;;;;;;;;;5.67;3.67;;;;;19.20;46.83;102458.72;5097831;27;45377;-65
2021/10/23 07:54:08;;;;;;;;;2.67;2.67;;;;;19.20;46.68;102449.84;5097700;27;45328;-66
2021/10/23 07:56:40;;;;;;;;;7.67;3.67;;;;;19.18;46.38;102457.81;5097844;27;45240;-65
2021/10/23 07:59:07;;;;;;;;;3.33;3.33;;;;;19.20;46.96;102463.16;5097551;27;45454;-66
2021/10/23 08:01:32;;;;;;;;;3.00;2.67;;;;;19.18;46.52;102457.81;5097935;27;45502;-65
2021/10/23 08:03:57;;;;;;;;;3.33;2.67;;;;;19.19;46.70;102467.59;5097904;27;45293;-65
2021/10/23 08:06:23;;;;;;;;;4.67;1.67;;;;;19.19;46.71;102464.94;5097525;27;46232;-65
2021/10/23 08:08:48;;;;;;;;;3.67;3.67;;;;;19.19;46.64;102464.03;5097792;27;45325;-65
2021/10/23 08:11:14;;;;;;;;;3.67;2.00;;;;;19.20;46.75;102472.06;5097834;27;45932;-65
2021/10/23 08:13:40;;;;;;;;;3.00;3.00;;;;;19.19;46.53;102466.69;5097792;27;45330;-65
2021/10/23 08:16:05;;;;;;;;;2.00;2.00;;;;;19.19;46.44;102466.69;5097157;27;47222;-65
2021/10/23 08:18:32;;;;;;;;;2.33;1.67;;;;;19.19;46.44;102467.59;5097352;27;45337;-65
2021/10/23 08:20:58;;;;;;;;;2.00;2.00;;;;;19.17;46.49;102466.69;5097783;27;45401;-64
2021/10/23 08:23:24;;;;;;;;;1.33;1.33;;;;;19.18;46.38;102464.91;5097527;27;45522;-64
2021/10/23 08:25:51;;;;;;;;;3.00;2.33;;;;;19.19;46.35;102466.69;5097309;27;46521;-64
2021/10/23 08:28:17;;;;;;;;;3.33;3.33;;;;;19.18;46.47;102457.81;5096985;27;45458;-65
2021/10/23 08:30:43;;;;;;;;;5.00;3.67;;;;;19.18;46.66;102464.91;5097231;27;45329;-65
2021/10/23 08:33:08;;;;;;;;;4.67;4.00;;;;;19.17;46.57;102453.34;5096896;27;45457;-68
2021/10/23 08:35:34;;;;;;;;;4.00;3.00;;;;;19.18;46.36;102456.94;5097025;27;46102;-65
2021/10/23 08:38:00;;;;;;;;;3.33;3.33;;;;;19.17;46.36;102455.13;5097213;27;45326;-64
2021/10/23 08:40:27;;;;;;;;;3.00;3.00;;;;;19.18;46.47;102459.59;5097203;27;45451;-65
2021/10/23 08:42:53;;;;;;;;;4.00;2.67;;;;;19.18;46.51;102464.91;5097457;27;45349;-65
2021/10/23 08:45:19;;;;;;;;;8.00;3.00;;;;;19.17;46.47;102464.03;5096835;27;46459;-65
2021/10/23 08:47:46;;;;;;;;;2.67;2.67;;;;;19.18;46.54;102463.16;5096948;27;45332;-66
2021/10/23 08:50:15;;;;;;;;;5.33;4.33;;;;;19.17;46.38;102463.13;5097052;27;45466;-65
2021/10/23 08:52:43;;;;;;;;;2.33;2.33;;;;;19.18;46.36;102465.81;5097122;27;45530;-65
2021/10/23 08:55:09;;;;;;;;;3.00;3.00;;;;;19.17;46.37;102457.78;5096714;27;47076;-66
2021/10/23 08:57:34;;;;;;;;;5.33;4.33;;;;;19.17;46.45;102464.03;5096715;27;45309;-64
2021/10/23 09:00:00;;;;;;;;;3.33;2.67;;;;;19.18;46.28;102464.91;5097021;27;45425;-65
2021/10/23 09:02:26;;;;;;;;;3.00;3.00;;;;;19.17;46.31;102466.69;5097169;27;45270;-66
2021/10/23 09:04:53;;;;;;;;;4.00;3.67;;;;;19.17;46.36;102463.13;5097071;27;46190;-66
2021/10/23 09:07:19;;;;;;;;;4.67;2.67;;;;;19.18;46.47;102470.25;5096695;27;45487;-65
2021/10/23 09:09:56;;;;;;;;;4.67;2.67;;;;;19.17;46.49;102460.44;5094502;27;45275;-66
2021/10/23 09:12:23;;;;;;;;;5.67;3.00;;;;;19.17;46.40;102458.69;5096847;27;45415;-67
2021/10/23 09:14:58;;;;;;;;;5.00;4.33;;;;;19.17;46.45;102464.03;5096421;27;46180;-66
2021/10/23 09:17:24;;;;;;;;;2.67;2.67;;;;;19.18;46.44;102454.25;5096241;27;45405;-66
2021/10/23 09:19:50;;;;;;;;;4.00;4.00;;;;;19.19;46.50;102466.69;5096706;27;45288;-66
2021/10/23 09:22:26;;;;;;;;;5.00;4.33;;;;;19.18;46.53;102464.91;5096741;27;45388;-66
2021/10/23 09:25:10;;;;;;;;;2.67;2.67;;;;;19.19;46.72;102466.69;5096441;27;47186;-66
2021/10/23 09:27:44;;;;;;;;;3.67;3.67;;;;;19.19;46.69;102462.25;5096202;27;45552;-67
2021/10/23 09:30:15;;;;;;;;;4.33;4.33;;;;;19.20;46.79;102463.16;5096504;27;45405;-64
2021/10/23 09:32:41;;;;;;;;;4.67;3.67;;;;;19.20;46.77;102464.06;5096198;27;45680;-65
2021/10/23 09:35:12;;;;;;;;;3.67;3.67;;;;;19.21;46.71;102462.25;5096293;27;46915;-64
2021/10/23 09:37:40;;;;;;;;;5.00;3.67;;;;;19.22;46.60;102461.41;5096278;27;45417;-70
2021/10/23 09:40:09;;;;;;;;;7.33;5.00;;;;;19.21;46.13;102462.25;5097123;27;45305;-68
2021/10/23 09:42:35;;;;;;;;;5.67;4.33;;;;;19.17;45.50;102460.44;5099423;27;45491;-67
2021/10/23 09:45:04;;;;;;;;;4.33;4.33;;;;;19.14;45.31;102457.75;5099171;27;46986;-68
2021/10/23 09:47:34;;;;;;;;;4.67;4.33;;;;;19.10;45.13;102457.69;5099536;27;45247;-67
2021/10/23 09:50:11;;;;;;;;;6.67;6.00;;;;;19.08;44.70;102458.56;5098518;27;45464;-68
2021/10/23 09:53:02;;;;;;;;;6.67;5.67;;;;;18.98;44.59;102452.25;5099648;27;45423;-67
2021/10/23 09:55:47;;;;;;;;;5.67;5.00;;;;;18.87;44.49;102460.13;5099334;27;48024;-70
2021/10/23 09:58:17;;;;;;;;;6.33;5.33;;;;;18.82;44.81;102453.88;5099407;27;45341;-68
2021/10/23 10:00:44;;;;;;;;;5.00;4.67;;;;;18.79;44.93;102457.41;5099343;27;45460;-70
2021/10/23 10:03:11;;;;;;;;;4.67;4.33;;;;;18.78;45.10;102458.28;5099684;27;45241;-67
2021/10/23 10:05:37;;;;;;;;;6.33;4.67;;;;;18.78;44.93;102460.97;5099066;27;46252;-66
2021/10/23 10:08:10;;;;;;;;;11.00;5.33;;;;;18.78;44.43;102465.38;5099062;27;45340;-66
2021/10/23 10:10:38;;;;;;;;;5.33;5.33;;;;;18.77;44.75;102458.25;5099414;27;45217;-64
2021/10/23 10:13:03;;;;;;;;;7.67;6.33;;;;;18.75;44.56;102464.47;5099550;27;45523;-67
2021/10/23 10:15:30;;;;;;;;;4.00;4.00;;;;;18.75;44.61;102456.47;5097824;27;47538;-62
2021/10/23 10:18:03;;;;;;;;;4.33;4.00;;;;;18.75;44.59;102463.56;5099082;27;45446;-67
2021/10/23 10:20:29;;;;;;;;;5.00;3.67;;;;;18.74;44.51;102456.47;5099266;27;45282;-62
2021/10/23 10:22:55;;;;;;;;;8.00;4.67;;;;;18.74;44.80;102456.47;5099177;27;45397;-64
2021/10/23 10:25:27;;;;;;;;;2.67;2.67;;;;;18.72;44.80;102456.44;5099012;27;46105;-64
2021/10/23 10:27:53;;;;;;;;;4.33;2.67;;;;;18.73;44.82;102455.56;5099082;27;45392;-63
2021/10/23 10:30:21;;;;;;;;;5.67;4.00;;;;;18.76;45.16;102457.38;5099311;27;45304;-64
2021/10/23 10:32:47;;;;;;;;;3.67;3.67;;;;;18.77;45.35;102459.16;5098937;27;45435;-63
2021/10/23 10:43:15;;;;;;;;;4.33;3.00;;;;;18.88;45.63;102461.03;5099212;27;45308;-63
2021/10/23 10:45:46;;;;;;;;;3.00;3.00;;;;;18.90;45.74;102459.28;5098586;27;45471;-63
2021/10/23 10:48:17;;;;;;;;;4.00;4.00;;;;;18.91;45.56;102447.75;5098569;27;45332;-64
2021/10/23 10:50:48;;;;;;;;;4.00;3.00;;;;;18.95;45.78;102444.25;5098867;27;45416;-63
2021/10/23 10:53:29;;;;;;;;;3.67;3.67;;;;;18.96;45.73;102440.69;5098845;27;45386;-63
2021/10/23 10:56:12;;;;;;;;;2.33;2.33;;;;;18.98;45.62;102431.84;5098572;27;46065;-63
2021/10/23 10:58:40;;;;;;;;;3.67;3.67;;;;;19.00;45.50;102439.84;5098150;27;45407;-63
2021/10/23 11:01:23;;;;;;;;;6.33;3.33;;;;;19.01;45.95;102433.66;5098435;27;45404;-63
2021/10/23 11:04:10;;;;;;;;;4.67;3.00;;;;;19.04;45.72;102431.00;5098745;27;45864;-63
2021/10/23 11:06:35;;;;;;;;;2.67;2.67;;;;;19.06;45.69;102433.66;5098671;27;46925;-63
2021/10/23 11:11:43;;;;;;;;;2.33;2.33;;;;;19.09;45.76;102426.63;5098567;27;45397;-63
2021/10/23 11:14:34;;;;;;;;;2.00;1.67;;;;;19.10;45.88;102425.72;5098568;27;45352;-65
2021/10/23 11:17:03;;;;;;;;;2.33;2.33;;;;;19.12;46.12;102423.06;5092093;27;46375;-66
2021/10/23 11:19:31;;;;;;;;;4.00;2.67;;;;;19.14;46.20;102421.28;5097987;27;45378;-65
2021/10/23 11:22:03;;;;;;;;;3.00;2.00;;;;;19.14;46.09;102415.97;5098324;27;45153;-63
2021/10/23 11:24:42;;;;;;;;;2.67;2.67;;;;;19.17;46.00;102425.78;5098472;27;45383;-63
2021/10/23 11:27:09;;;;;;;;;1.67;1.67;;;;;19.16;46.00;102421.38;5098043;27;46437;-63
2021/10/23 11:29:37;;;;;;;;;3.33;3.00;;;;;19.18;45.98;102427.59;5098003;27;45456;-63
2021/10/23 11:32:02;;;;;;;;;2.33;2.33;;;;;19.18;45.96;102420.50;5097808;27;45313;-64
2021/10/23 11:34:30;;;;;;;;;3.00;2.00;;;;;19.19;46.25;102418.72;5096512;27;45536;-64